createdAt,value
2023-03-25T00:01:19.884Z,7.07
2023-03-25T00:03:50.889Z,7.36
2023-03-25T00:06:19.923Z,7.29
2023-03-25T00:08:48.338Z,7.27
2023-03-25T00:11:18.111Z,7.29
2023-03-25T00:13:46.419Z,7.26
2023-03-25T00:16:15.058Z,7.29
2023-03-25T00:18:43.766Z,7.17
2023-03-25T00:21:12.171Z,7.37
2023-03-25T00:23:41.818Z,7.37
2023-03-25T00:26:10.438Z,7.33
2023-03-25T00:28:40.611Z,7.29
2023-03-25T00:31:10.792Z,7.32
2023-03-25T00:33:41.916Z,7.41
2023-03-25T00:36:13.794Z,7.40
2023-03-25T00:38:43.748Z,7.13
2023-03-25T00:41:23.481Z,7.32
2023-03-25T00:43:54.420Z,7.30
2023-03-25T00:46:23.395Z,7.01
2023-03-25T00:48:52.775Z,7.29
2023-03-25T00:51:21.877Z,7.16
2023-03-25T00:53:53.503Z,6.71
2023-03-25T00:56:22.047Z,7.25
2023-03-25T00:58:50.541Z,7.15
2023-03-25T01:01:23.693Z,7.18
2023-03-25T01:03:58.032Z,7.21
2023-03-25T01:06:30.076Z,7.25
2023-03-25T01:08:59.423Z,6.75
2023-03-25T01:11:30.354Z,7.19
2023-03-25T01:14:00.571Z,6.98
2023-03-25T01:16:30.947Z,7.34
2023-03-25T01:18:59.319Z,7.14
2023-03-25T01:21:27.976Z,7.49
2023-03-25T01:23:56.337Z,7.32
2023-03-25T01:26:24.714Z,7.27
2023-03-25T01:28:54.068Z,7.22
2023-03-25T01:31:24.419Z,7.05
2023-03-25T01:33:54.140Z,7.19
2023-03-25T01:36:24.807Z,7.07
2023-03-25T01:38:53.531Z,7.25
2023-03-25T01:41:21.867Z,7.11
2023-03-25T01:44:08.350Z,6.94
2023-03-25T01:46:37.530Z,6.90
2023-03-25T01:49:10.861Z,6.88
2023-03-25T01:51:43.512Z,7.07
2023-03-25T01:54:13.011Z,7.07
2023-03-25T01:56:43.607Z,6.93
2023-03-25T01:59:12.349Z,7.01
2023-03-25T02:01:40.679Z,6.95
2023-03-25T02:04:12.123Z,7.03
2023-03-25T02:06:44.579Z,7.22
2023-03-25T02:09:15.330Z,6.88
2023-03-25T02:11:43.590Z,6.85
2023-03-25T02:14:15.237Z,6.94
2023-03-25T02:16:50.621Z,6.88
2023-03-25T02:19:57.415Z,6.88
2023-03-25T02:22:51.173Z,6.83
2023-03-25T02:25:46.364Z,6.78
2023-03-25T02:28:26.206Z,6.79
2023-03-25T02:31:22.689Z,6.59
2023-03-25T02:34:31.630Z,6.61
2023-03-25T02:37:31.161Z,6.47
2023-03-25T02:40:07.524Z,6.49
2023-03-25T02:42:41.093Z,6.58
2023-03-25T02:45:17.219Z,6.43
2023-03-25T02:47:50.537Z,6.50
2023-03-25T02:50:25.108Z,6.51
2023-03-25T02:52:58.737Z,6.50
2023-03-25T02:55:30.739Z,6.32
2023-03-25T02:58:01.907Z,6.39
2023-03-25T03:00:31.028Z,6.34
2023-03-25T03:03:01.391Z,6.61
2023-03-25T03:05:32.516Z,6.33
2023-03-25T03:08:23.794Z,6.47
2023-03-25T03:11:03.904Z,6.33
2023-03-25T03:13:46.751Z,6.24
2023-03-25T03:16:24.997Z,6.44
2023-03-25T03:19:03.554Z,6.34
2023-03-25T03:21:38.421Z,6.51
2023-03-25T03:24:14.324Z,6.32
2023-03-25T03:26:49.095Z,6.07
2023-03-25T03:29:21.121Z,6.11
2023-03-25T03:32:05.681Z,6.21
2023-03-25T03:34:44.840Z,6.11
2023-03-25T03:37:16.746Z,5.89
2023-03-25T03:39:46.520Z,6.03
2023-03-25T03:42:20.635Z,6.07
2023-03-25T03:44:54.572Z,6.05
2023-03-25T03:47:27.986Z,5.97
2023-03-25T03:50:00.625Z,6.05
2023-03-25T03:52:34.691Z,5.95
2023-03-25T03:55:10.955Z,6.06
2023-03-25T03:57:46.869Z,5.96
2023-03-25T04:00:19.934Z,5.99
2023-03-25T04:02:52.431Z,6.04
2023-03-25T04:05:23.558Z,6.05
2023-03-25T04:07:58.894Z,5.54
2023-03-25T04:10:35.015Z,5.55
2023-03-25T04:13:09.510Z,5.92
2023-03-25T04:15:38.637Z,5.75
2023-03-25T04:18:07.104Z,5.97
2023-03-25T04:20:36.877Z,5.82
2023-03-25T04:23:06.568Z,5.93
2023-03-25T04:25:35.232Z,5.80
2023-03-25T04:28:05.131Z,5.82
2023-03-25T04:30:33.429Z,5.89
2023-03-25T04:33:01.854Z,5.85
2023-03-25T04:35:33.221Z,5.86
2023-03-25T04:38:01.895Z,5.95
2023-03-25T04:40:30.427Z,5.98
2023-03-25T04:42:58.843Z,5.94
2023-03-25T04:45:28.867Z,5.98
2023-03-25T04:47:58.226Z,5.98
2023-03-25T04:50:28.517Z,5.98
2023-03-25T04:52:58.403Z,6.03
2023-03-25T04:55:26.793Z,6.04
2023-03-25T04:57:56.444Z,6.08
2023-03-25T05:00:27.254Z,6.08
2023-03-25T05:03:02.090Z,6.10
2023-03-25T05:05:30.569Z,6.22
2023-03-25T05:07:59.436Z,6.19
2023-03-25T05:10:29.883Z,6.06
2023-03-25T05:13:00.533Z,5.96
2023-03-25T05:15:30.587Z,5.92
2023-03-25T05:18:00.409Z,5.91
2023-03-25T05:20:28.982Z,5.84
2023-03-25T05:22:57.761Z,5.93
2023-03-25T05:25:26.057Z,5.88
2023-03-25T05:27:54.582Z,5.86
2023-03-25T05:30:23.003Z,5.81
2023-03-25T05:32:56.776Z,5.92
2023-03-25T05:35:27.883Z,5.79
2023-03-25T05:37:57.752Z,5.91
2023-03-25T05:40:26.469Z,5.66
2023-03-25T05:42:54.977Z,5.70
2023-03-25T05:45:23.599Z,5.70
2023-03-25T05:47:52.444Z,5.37
2023-03-25T05:50:21.903Z,5.71
2023-03-25T05:52:52.042Z,5.69
2023-03-25T05:55:22.998Z,5.90
2023-03-25T05:57:51.461Z,5.75
2023-03-25T06:00:23.529Z,5.76
2023-03-25T06:02:52.922Z,5.75
2023-03-25T06:05:23.974Z,5.69
2023-03-25T06:07:56.605Z,5.62
2023-03-25T06:10:25.254Z,5.64
2023-03-25T06:12:54.436Z,5.70
2023-03-25T06:15:29.227Z,5.48
2023-03-25T06:17:58.015Z,5.68
2023-03-25T06:20:26.308Z,5.64
2023-03-25T06:22:56.450Z,5.62
2023-03-25T06:25:26.880Z,5.24
2023-03-25T06:27:58.122Z,5.77
2023-03-25T06:30:26.487Z,5.64
2023-03-25T06:32:58.392Z,5.60
2023-03-25T06:35:26.792Z,5.64
2023-03-25T06:37:56.725Z,5.65
2023-03-25T06:40:26.058Z,5.69
2023-03-25T06:42:54.406Z,5.40
2023-03-25T06:45:22.786Z,5.79
2023-03-25T06:47:51.154Z,5.74
2023-03-25T06:50:19.929Z,5.69
2023-03-25T06:52:48.192Z,5.66
2023-03-25T06:55:18.060Z,5.66
2023-03-25T06:57:46.688Z,5.64
2023-03-25T07:00:20.399Z,5.71
2023-03-25T07:02:48.511Z,5.61
2023-03-25T07:05:16.868Z,5.65
2023-03-25T07:07:45.765Z,5.64
2023-03-25T07:10:14.476Z,5.92
2023-03-25T07:12:44.472Z,5.83
2023-03-25T07:15:13.213Z,5.74
2023-03-25T07:17:43.694Z,5.90
2023-03-25T07:20:14.464Z,5.83
2023-03-25T07:22:44.137Z,5.91
2023-03-25T07:25:12.478Z,6.00
2023-03-25T07:27:40.888Z,6.03
2023-03-25T07:30:11.741Z,6.23
2023-03-25T07:32:40.240Z,6.00
2023-03-25T07:35:09.619Z,6.04
2023-03-25T07:37:37.896Z,5.96
2023-03-25T07:40:07.284Z,6.13
2023-03-25T07:42:37.667Z,5.73
2023-03-25T07:45:07.247Z,5.95
2023-03-25T07:47:37.047Z,5.98
2023-03-25T07:50:05.961Z,5.97
2023-03-25T07:52:34.317Z,5.88
2023-03-25T07:55:02.645Z,6.00
2023-03-25T07:57:31.351Z,6.10
2023-03-25T07:59:59.975Z,6.12
2023-03-25T08:02:28.305Z,6.10
2023-03-25T08:04:58.113Z,6.19
2023-03-25T08:07:28.547Z,6.34
2023-03-25T08:09:56.830Z,6.31
2023-03-25T08:12:25.136Z,6.35
2023-03-25T08:14:53.506Z,6.39
2023-03-25T08:17:21.904Z,6.52
2023-03-25T08:19:50.559Z,6.16
2023-03-25T08:22:20.620Z,6.03
2023-03-25T08:24:49.246Z,5.92
2023-03-25T08:27:17.554Z,5.88
2023-03-25T08:29:47.379Z,5.85
2023-03-25T08:32:15.717Z,5.83
2023-03-25T08:34:44.253Z,5.95
2023-03-25T08:37:12.603Z,5.89
2023-03-25T08:39:45.262Z,5.85
2023-03-25T08:42:15.177Z,6.00
2023-03-25T08:44:43.471Z,6.03
2023-03-25T08:47:11.792Z,6.25
2023-03-25T08:49:40.046Z,6.24
2023-03-25T08:52:10.638Z,6.24
2023-03-25T08:54:39.020Z,6.19
2023-03-25T08:57:09.032Z,6.23
2023-03-25T08:59:37.443Z,6.32
2023-03-25T09:02:05.936Z,6.37
2023-03-25T09:04:34.251Z,6.40
2023-03-25T09:07:11.254Z,6.49
2023-03-25T09:09:40.848Z,6.32
2023-03-25T09:12:11.135Z,6.24
2023-03-25T09:14:39.882Z,6.25
2023-03-25T09:17:10.262Z,6.31
2023-03-25T09:19:39.040Z,6.38
2023-03-25T09:22:08.363Z,6.55
2023-03-25T09:24:36.759Z,6.48
2023-03-25T09:27:05.644Z,6.56
2023-03-25T09:29:35.742Z,6.57
2023-03-25T09:32:04.436Z,6.53
2023-03-25T09:34:32.848Z,6.27
2023-03-25T09:37:01.351Z,6.52
2023-03-25T09:39:29.743Z,6.47
2023-03-25T09:42:11.812Z,6.63
2023-03-25T09:44:57.305Z,6.64
2023-03-25T09:47:27.115Z,6.82
2023-03-25T09:50:01.408Z,6.70
2023-03-25T09:52:36.150Z,6.91
2023-03-25T09:55:07.928Z,6.80
2023-03-25T09:57:46.157Z,6.98
2023-03-25T10:00:20.237Z,7.01
2023-03-25T10:02:55.516Z,6.98
2023-03-25T10:05:47.484Z,7.02
2023-03-25T10:08:24.450Z,6.98
2023-03-25T10:11:01.180Z,6.49
2023-03-25T10:13:37.578Z,7.23
2023-03-25T10:16:16.544Z,7.03
2023-03-25T10:18:57.893Z,7.05
2023-03-25T10:21:32.006Z,7.05
2023-03-25T10:24:12.060Z,7.08
2023-03-25T10:26:46.854Z,6.86
2023-03-25T10:29:19.781Z,7.14
2023-03-25T10:31:53.812Z,7.10
2023-03-25T10:34:29.652Z,7.18
2023-03-25T10:37:00.555Z,7.46
2023-03-25T10:39:37.492Z,7.61
2023-03-25T10:42:18.370Z,7.10
2023-03-25T10:44:48.234Z,6.89
2023-03-25T10:47:21.503Z,6.91
2023-03-25T10:49:52.470Z,6.83
2023-03-25T10:52:20.885Z,6.90
2023-03-25T10:54:53.340Z,6.99
2023-03-25T10:57:26.154Z,7.11
2023-03-25T11:00:06.215Z,7.13
2023-03-25T11:02:36.357Z,7.10
2023-03-25T11:05:06.677Z,7.19
2023-03-25T11:07:37.561Z,7.33
2023-03-25T11:10:21.708Z,7.53
2023-03-25T11:12:52.602Z,7.68
2023-03-25T11:15:24.126Z,7.78
2023-03-25T11:18:02.069Z,7.97
2023-03-25T11:20:36.757Z,7.94
2023-03-25T11:23:08.763Z,7.65
2023-03-25T11:25:42.150Z,7.97
2023-03-25T11:28:19.168Z,7.62
2023-03-25T11:31:16.730Z,8.06
2023-03-25T11:33:48.387Z,7.84
2023-03-25T11:36:26.848Z,8.20
2023-03-25T11:38:59.753Z,8.28
2023-03-25T11:41:36.869Z,7.80
2023-03-25T11:44:07.452Z,8.00
2023-03-25T11:46:43.018Z,7.35
2023-03-25T11:49:19.881Z,8.01
2023-03-25T11:51:48.305Z,7.73
2023-03-25T11:54:18.777Z,7.42
2023-03-25T11:56:51.454Z,6.88
2023-03-25T11:59:25.261Z,6.63
2023-03-25T12:02:02.704Z,6.25
2023-03-25T12:04:32.640Z,5.88
2023-03-25T12:07:02.868Z,5.87
2023-03-25T12:09:33.478Z,5.21
2023-03-25T12:12:26.879Z,5.47
2023-03-25T12:15:07.269Z,5.19
2023-03-25T12:17:47.805Z,4.98
2023-03-25T12:20:27.483Z,5.20
2023-03-25T12:23:03.662Z,5.27
2023-03-25T12:25:56.909Z,4.99
2023-03-25T12:28:46.663Z,4.97
2023-03-25T12:31:27.574Z,5.04
2023-03-25T12:34:08.072Z,5.04
2023-03-25T12:36:49.849Z,5.01
2023-03-25T12:39:43.717Z,5.25
2023-03-25T12:42:22.950Z,5.20
2023-03-25T12:45:06.137Z,5.20
2023-03-25T12:47:37.302Z,5.46
2023-03-25T12:50:44.863Z,5.48
2023-03-25T12:53:33.113Z,5.92
2023-03-25T12:56:11.649Z,6.11
2023-03-25T12:59:07.601Z,6.24
2023-03-25T13:01:46.261Z,6.24
2023-03-25T13:04:38.385Z,6.19
2023-03-25T13:07:13.005Z,6.29
2023-03-25T13:09:53.604Z,6.43
2023-03-25T13:12:33.026Z,6.43
2023-03-25T13:15:09.628Z,6.76
2023-03-25T13:17:42.766Z,6.99
2023-03-25T13:20:13.019Z,6.76
2023-03-25T13:22:45.092Z,6.85
2023-03-25T13:25:22.774Z,7.16
2023-03-25T13:27:53.476Z,7.18
2023-03-25T13:30:32.237Z,7.28
2023-03-25T13:33:08.302Z,7.46
2023-03-25T13:35:43.179Z,7.50
2023-03-25T13:38:16.577Z,7.36
2023-03-25T13:40:53.248Z,7.55
2023-03-25T13:43:37.573Z,7.61
2023-03-25T13:46:09.584Z,7.85
2023-03-25T13:48:43.502Z,8.09
2023-03-25T13:51:12.203Z,7.89
2023-03-25T13:53:46.708Z,7.93
2023-03-25T13:56:53.693Z,7.82
2023-03-25T13:59:45.961Z,8.10
2023-03-25T14:02:35.795Z,7.93
2023-03-25T14:05:44.228Z,7.93
2023-03-25T14:08:32.521Z,7.95
2023-03-25T14:11:18.854Z,8.18
2023-03-25T14:13:52.712Z,8.20
2023-03-25T14:16:25.800Z,8.27
2023-03-25T14:18:57.228Z,8.35
2023-03-25T14:21:33.922Z,8.58
2023-03-25T14:24:04.794Z,8.64
2023-03-25T14:26:35.578Z,8.75
2023-03-25T14:29:11.255Z,8.85
2023-03-25T14:31:41.023Z,8.93
2023-03-25T14:34:30.169Z,8.87
2023-03-25T14:37:29.043Z,8.96
2023-03-25T14:40:00.352Z,9.00
2023-03-25T14:42:31.723Z,9.09
2023-03-25T14:45:42.337Z,9.25
2023-03-25T14:48:38.028Z,9.35
2023-03-25T14:51:41.079Z,9.53
2023-03-25T14:54:22.501Z,9.70
2023-03-25T14:56:57.297Z,9.67
2023-03-25T14:59:32.165Z,9.68
2023-03-25T15:02:07.346Z,9.69
2023-03-25T15:04:40.305Z,9.63
2023-03-25T15:07:14.139Z,9.40
2023-03-25T15:09:48.800Z,9.41
2023-03-25T15:12:21.034Z,9.29
2023-03-25T15:14:51.647Z,9.26
2023-03-25T15:17:43.015Z,9.14
2023-03-25T15:20:36.206Z,8.94
2023-03-25T15:23:33.300Z,8.96
2023-03-25T15:26:05.024Z,8.92
2023-03-25T15:28:48.915Z,9.03
2023-03-25T15:31:32.136Z,8.95
2023-03-25T15:34:16.204Z,8.74
2023-03-25T15:36:52.310Z,8.31
2023-03-25T15:39:37.046Z,8.09
2023-03-25T15:42:24.796Z,8.32
2023-03-25T15:45:28.767Z,8.48
2023-03-25T15:48:34.622Z,8.22
2023-03-25T15:51:16.664Z,8.10
2023-03-25T15:54:10.517Z,8.20
2023-03-25T15:56:43.514Z,8.05
2023-03-25T15:59:30.345Z,7.98
2023-03-25T16:02:02.891Z,7.96
2023-03-25T16:04:39.822Z,7.71
2023-03-25T16:07:11.524Z,7.83
2023-03-25T16:09:46.262Z,7.95
2023-03-25T16:12:23.038Z,8.20
2023-03-25T16:14:52.739Z,7.80
2023-03-25T16:17:23.422Z,7.57
2023-03-25T16:19:54.523Z,7.57
2023-03-25T16:22:27.991Z,7.52
2023-03-25T16:24:59.856Z,7.49
2023-03-25T16:27:32.232Z,7.60
2023-03-25T16:30:01.021Z,7.44
2023-03-25T16:32:34.423Z,7.37
2023-03-25T16:35:04.782Z,7.19
2023-03-25T16:37:34.199Z,7.10
2023-03-25T16:40:07.579Z,7.04
2023-03-25T16:42:37.367Z,7.07
2023-03-25T16:45:07.368Z,7.15
2023-03-25T16:47:36.214Z,7.10
2023-03-25T16:50:06.376Z,7.01
2023-03-25T16:52:36.259Z,6.83
2023-03-25T16:55:28.904Z,6.83
2023-03-25T16:57:57.443Z,6.74
2023-03-25T17:00:26.826Z,6.65
2023-03-25T17:02:55.654Z,6.70
2023-03-25T17:05:26.374Z,6.72
2023-03-25T17:08:02.070Z,6.66
2023-03-25T17:10:34.484Z,6.92
2023-03-25T17:13:09.243Z,6.73
2023-03-25T17:15:38.299Z,6.64
2023-03-25T17:18:14.396Z,6.90
2023-03-25T17:20:45.025Z,6.78
2023-03-25T17:23:28.668Z,6.78
2023-03-25T17:26:00.358Z,6.79
2023-03-25T17:28:33.260Z,6.81
2023-03-25T17:31:02.345Z,6.74
2023-03-25T17:33:35.369Z,6.79
2023-03-25T17:36:09.439Z,6.75
2023-03-25T17:38:45.093Z,6.86
2023-03-25T17:41:17.358Z,7.21
2023-03-25T17:43:48.904Z,6.78
2023-03-25T17:46:21.915Z,6.64
2023-03-25T17:48:53.473Z,6.40
2023-03-25T17:51:22.880Z,6.05
2023-03-25T17:53:51.432Z,6.51
2023-03-25T17:56:25.683Z,6.54
2023-03-25T17:58:59.975Z,6.43
2023-03-25T18:01:28.912Z,6.42
2023-03-25T18:03:57.560Z,6.48
2023-03-25T18:06:26.166Z,6.17
2023-03-25T18:08:54.471Z,6.41
2023-03-25T18:11:24.166Z,5.96
2023-03-25T18:13:52.688Z,6.41
2023-03-25T18:16:22.832Z,6.44
2023-03-25T18:18:51.936Z,6.37
2023-03-25T18:21:21.195Z,6.43
2023-03-25T18:23:49.623Z,6.39
2023-03-25T18:26:19.876Z,6.37
2023-03-25T18:28:50.165Z,6.27
2023-03-25T18:31:19.006Z,6.38
2023-03-25T18:33:48.627Z,6.35
2023-03-25T18:36:17.565Z,6.28
2023-03-25T18:38:46.476Z,6.24
2023-03-25T18:41:17.342Z,6.27
2023-03-25T18:43:45.896Z,5.97
2023-03-25T18:46:16.405Z,6.22
2023-03-25T18:48:45.243Z,6.21
2023-03-25T18:51:14.428Z,6.12
2023-03-25T18:53:43.038Z,6.13
2023-03-25T18:56:11.852Z,6.08
2023-03-25T18:58:40.239Z,6.08
2023-03-25T19:01:10.176Z,6.13
2023-03-25T19:03:40.314Z,6.06
2023-03-25T19:06:12.075Z,6.07
2023-03-25T19:08:40.755Z,6.04
2023-03-25T19:11:19.909Z,5.98
2023-03-25T19:13:49.154Z,5.82
2023-03-25T19:16:17.754Z,5.94
2023-03-25T19:18:47.743Z,5.90
2023-03-25T19:21:17.866Z,5.73
2023-03-25T19:23:46.227Z,6.08
2023-03-25T19:26:14.962Z,6.02
2023-03-25T19:28:43.884Z,6.16
2023-03-25T19:31:15.743Z,6.27
2023-03-25T19:33:44.604Z,6.33
2023-03-25T19:36:19.177Z,6.30
2023-03-25T19:38:47.756Z,6.29
2023-03-25T19:41:17.429Z,6.16
2023-03-25T19:43:46.026Z,6.38
2023-03-25T19:46:14.529Z,6.33
2023-03-25T19:48:42.862Z,6.30
2023-03-25T19:51:11.224Z,6.28
2023-03-25T19:53:41.059Z,6.38
2023-03-25T19:56:13.993Z,6.40
2023-03-25T19:58:42.522Z,6.30
2023-03-25T20:01:11.245Z,6.40
2023-03-25T20:03:41.288Z,6.45
2023-03-25T20:06:10.057Z,6.58
2023-03-25T20:08:38.430Z,6.56
2023-03-25T20:11:12.846Z,6.54
2023-03-25T20:13:41.419Z,6.42
2023-03-25T20:16:10.271Z,6.39
2023-03-25T20:18:39.110Z,6.43
2023-03-25T20:21:08.792Z,6.49
2023-03-25T20:23:37.234Z,6.21
2023-03-25T20:26:06.242Z,6.43
2023-03-25T20:28:37.458Z,6.45
2023-03-25T20:31:18.504Z,6.30
2023-03-25T20:33:47.655Z,6.43
2023-03-25T20:36:15.944Z,6.35
2023-03-25T20:38:56.075Z,6.29
2023-03-25T20:41:25.767Z,6.34
2023-03-25T20:43:55.917Z,6.39
2023-03-25T20:46:28.523Z,6.15
2023-03-25T20:48:57.393Z,6.17
2023-03-25T20:51:26.531Z,5.98
2023-03-25T20:53:54.920Z,6.27
2023-03-25T20:56:23.265Z,6.17
2023-03-25T20:58:51.939Z,6.21
2023-03-25T21:01:22.279Z,6.04
2023-03-25T21:03:52.217Z,6.15
2023-03-25T21:06:23.725Z,5.56
2023-03-25T21:08:54.801Z,5.56
2023-03-25T21:11:23.267Z,5.64
2023-03-25T21:13:51.619Z,5.73
2023-03-25T21:16:21.444Z,5.66
2023-03-25T21:18:50.444Z,5.65
2023-03-25T21:21:20.072Z,5.50
2023-03-25T21:23:49.613Z,5.42
2023-03-25T21:26:18.219Z,5.53
2023-03-25T21:28:46.619Z,5.56
2023-03-25T21:31:20.209Z,5.36
2023-03-25T21:33:52.662Z,5.26
2023-03-25T21:36:24.338Z,5.20
2023-03-25T21:38:55.819Z,4.87
2023-03-25T21:41:24.133Z,5.12
2023-03-25T21:43:53.401Z,5.08
2023-03-25T21:46:24.439Z,5.08
2023-03-25T21:48:55.039Z,5.03
2023-03-25T21:51:23.383Z,4.99
2023-03-25T21:53:52.879Z,4.98
2023-03-25T21:56:24.790Z,4.97
2023-03-25T21:58:53.525Z,4.91
2023-03-25T22:01:28.821Z,4.84
2023-03-25T22:04:00.128Z,4.89
2023-03-25T22:06:30.629Z,4.92
2023-03-25T22:08:59.161Z,4.89
2023-03-25T22:11:29.793Z,4.79
2023-03-25T22:13:58.409Z,4.81
2023-03-25T22:16:27.084Z,4.82
2023-03-25T22:18:55.509Z,4.78
2023-03-25T22:21:29.670Z,4.82
2023-03-25T22:24:00.229Z,4.78
2023-03-25T22:26:31.241Z,4.73
2023-03-25T22:29:01.940Z,4.89
2023-03-25T22:31:39.827Z,5.07
2023-03-25T22:34:12.105Z,4.91
2023-03-25T22:36:46.415Z,4.97
2023-03-25T22:39:14.719Z,4.90
2023-03-25T22:41:43.176Z,4.90
2023-03-25T22:44:12.392Z,4.72
2023-03-25T22:46:41.133Z,4.89
2023-03-25T22:49:09.524Z,4.88
2023-03-25T22:51:37.872Z,4.84
2023-03-25T22:54:09.924Z,4.71
2023-03-25T22:56:38.242Z,5.09
2023-03-25T22:59:08.275Z,4.97
2023-03-25T23:01:37.234Z,4.94
2023-03-25T23:04:06.270Z,4.90
2023-03-25T23:06:36.400Z,5.02
2023-03-25T23:09:08.609Z,4.66
2023-03-25T23:11:38.375Z,4.81
2023-03-25T23:14:09.097Z,4.78
2023-03-25T23:16:39.028Z,4.76
2023-03-25T23:19:09.927Z,4.79
2023-03-25T23:21:38.584Z,4.91
2023-03-25T23:24:09.274Z,5.07
2023-03-25T23:26:40.269Z,4.94
2023-03-25T23:29:10.232Z,4.96
2023-03-25T23:31:41.322Z,4.92
2023-03-25T23:34:11.421Z,4.90
2023-03-25T23:36:40.390Z,5.11
2023-03-25T23:39:11.945Z,5.06
2023-03-25T23:41:40.262Z,5.04
2023-03-25T23:44:08.893Z,5.01
2023-03-25T23:46:37.303Z,4.96
2023-03-25T23:49:05.823Z,5.07
2023-03-25T23:51:36.750Z,5.01
2023-03-25T23:54:06.139Z,4.99
2023-03-25T23:56:36.647Z,4.97
2023-03-25T23:59:06.576Z,4.95
